sensor_id;sensor_type;location;lat;lon;timestamp;P1;durP1;ratioP1;P2;durP2;ratioP2
47483;SDS011;54076;50.322;18.650;2022-09-09T00:04:29;8.60;;;3.70;;
47483;SDS011;54076;50.322;18.650;2022-09-09T00:09:47;6.50;;;3.80;;
47483;SDS011;54076;50.322;18.650;2022-09-09T00:15:26;8.70;;;4.20;;
47483;SDS011;54076;50.322;18.650;2022-09-09T00:20:49;9.10;;;4.10;;
47483;SDS011;54076;50.322;18.650;2022-09-09T00:31:31;10.10;;;5.80;;
47483;SDS011;54076;50.322;18.650;2022-09-09T00:36:32;12.50;;;6.80;;
47483;SDS011;54076;50.322;18.650;2022-09-09T00:42:26;10.60;;;6.30;;
47483;SDS011;54076;50.322;18.650;2022-09-09T00:47:36;15.60;;;5.20;;
47483;SDS011;54076;50.322;18.650;2022-09-09T00:58:18;8.70;;;4.70;;
47483;SDS011;54076;50.322;18.650;2022-09-09T01:03:42;10.20;;;5.30;;
47483;SDS011;54076;50.322;18.650;2022-09-09T01:30:15;11.60;;;5.90;;
47483;SDS011;54076;50.322;18.650;2022-09-09T01:40:47;20.30;;;9.30;;
47483;SDS011;54076;50.322;18.650;2022-09-09T01:45:50;19.90;;;9.70;;
47483;SDS011;54076;50.322;18.650;2022-09-09T01:50:54;18.70;;;8.80;;
47483;SDS011;54076;50.322;18.650;2022-09-09T02:07:40;11.60;;;6.20;;
47483;SDS011;54076;50.322;18.650;2022-09-09T02:12:47;11.10;;;5.10;;
47483;SDS011;54076;50.322;18.650;2022-09-09T02:17:54;8.00;;;4.40;;
47483;SDS011;54076;50.322;18.650;2022-09-09T02:22:58;8.60;;;4.20;;
47483;SDS011;54076;50.322;18.650;2022-09-09T02:28:00;7.00;;;4.20;;
47483;SDS011;54076;50.322;18.650;2022-09-09T02:33:04;8.80;;;4.00;;
47483;SDS011;54076;50.322;18.650;2022-09-09T02:38:12;7.20;;;4.30;;
47483;SDS011;54076;50.322;18.650;2022-09-09T02:43:15;6.40;;;3.90;;
47483;SDS011;54076;50.322;18.650;2022-09-09T02:48:30;6.20;;;3.70;;
47483;SDS011;54076;50.322;18.650;2022-09-09T02:54:26;6.80;;;3.40;;
47483;SDS011;54076;50.322;18.650;2022-09-09T02:59:31;7.40;;;3.70;;
47483;SDS011;54076;50.322;18.650;2022-09-09T03:04:34;6.30;;;3.70;;
47483;SDS011;54076;50.322;18.650;2022-09-09T03:09:35;6.50;;;3.60;;
47483;SDS011;54076;50.322;18.650;2022-09-09T03:14:37;8.40;;;4.60;;
47483;SDS011;54076;50.322;18.650;2022-09-09T03:19:38;6.20;;;3.70;;
47483;SDS011;54076;50.322;18.650;2022-09-09T03:24:39;6.80;;;4.00;;
47483;SDS011;54076;50.322;18.650;2022-09-09T03:29:41;6.00;;;3.80;;
47483;SDS011;54076;50.322;18.650;2022-09-09T03:34:42;9.80;;;4.20;;
47483;SDS011;54076;50.322;18.650;2022-09-09T03:39:43;6.00;;;3.60;;
47483;SDS011;54076;50.322;18.650;2022-09-09T03:44:48;6.40;;;3.50;;
47483;SDS011;54076;50.322;18.650;2022-09-09T03:49:50;6.30;;;3.50;;
47483;SDS011;54076;50.322;18.650;2022-09-09T03:54:52;9.50;;;3.70;;
47483;SDS011;54076;50.322;18.650;2022-09-09T03:59:54;6.80;;;3.60;;
47483;SDS011;54076;50.322;18.650;2022-09-09T04:04:55;5.90;;;3.70;;
47483;SDS011;54076;50.322;18.650;2022-09-09T04:09:56;6.50;;;3.80;;
47483;SDS011;54076;50.322;18.650;2022-09-09T04:14:57;6.50;;;4.20;;
47483;SDS011;54076;50.322;18.650;2022-09-09T04:19:58;6.50;;;3.60;;
47483;SDS011;54076;50.322;18.650;2022-09-09T04:24:59;9.60;;;4.10;;
47483;SDS011;54076;50.322;18.650;2022-09-09T04:30:00;6.40;;;3.50;;
47483;SDS011;54076;50.322;18.650;2022-09-09T04:35:01;8.50;;;4.00;;
47483;SDS011;54076;50.322;18.650;2022-09-09T04:40:03;7.00;;;3.70;;
47483;SDS011;54076;50.322;18.650;2022-09-09T04:45:06;8.70;;;3.60;;
47483;SDS011;54076;50.322;18.650;2022-09-09T04:50:08;6.40;;;3.70;;
47483;SDS011;54076;50.322;18.650;2022-09-09T04:55:09;7.70;;;3.70;;
47483;SDS011;54076;50.322;18.650;2022-09-09T05:00:11;8.50;;;3.50;;
47483;SDS011;54076;50.322;18.650;2022-09-09T05:05:13;7.50;;;3.60;;
47483;SDS011;54076;50.322;18.650;2022-09-09T05:10:14;6.20;;;3.80;;
47483;SDS011;54076;50.322;18.650;2022-09-09T05:15:17;8.40;;;3.80;;
47483;SDS011;54076;50.322;18.650;2022-09-09T05:20:18;6.60;;;4.20;;
47483;SDS011;54076;50.322;18.650;2022-09-09T05:25:19;7.30;;;4.30;;
47483;SDS011;54076;50.322;18.650;2022-09-09T05:30:21;8.80;;;4.20;;
47483;SDS011;54076;50.322;18.650;2022-09-09T05:35:23;7.20;;;4.60;;
47483;SDS011;54076;50.322;18.650;2022-09-09T05:40:24;8.10;;;4.00;;
47483;SDS011;54076;50.322;18.650;2022-09-09T05:45:25;9.80;;;4.00;;
47483;SDS011;54076;50.322;18.650;2022-09-09T05:50:26;7.10;;;4.40;;
47483;SDS011;54076;50.322;18.650;2022-09-09T05:55:28;8.50;;;4.10;;
47483;SDS011;54076;50.322;18.650;2022-09-09T06:00:29;8.20;;;4.40;;
47483;SDS011;54076;50.322;18.650;2022-09-09T06:05:32;7.50;;;4.60;;
47483;SDS011;54076;50.322;18.650;2022-09-09T06:10:35;7.30;;;3.70;;
47483;SDS011;54076;50.322;18.650;2022-09-09T06:15:36;7.00;;;3.70;;
47483;SDS011;54076;50.322;18.650;2022-09-09T06:20:38;6.50;;;3.90;;
47483;SDS011;54076;50.322;18.650;2022-09-09T06:25:39;8.50;;;4.00;;
47483;SDS011;54076;50.322;18.650;2022-09-09T06:30:41;6.10;;;3.90;;
47483;SDS011;54076;50.322;18.650;2022-09-09T06:35:42;7.90;;;4.00;;
47483;SDS011;54076;50.322;18.650;2022-09-09T06:40:54;6.60;;;3.90;;
47483;SDS011;54076;50.322;18.650;2022-09-09T06:45:59;7.80;;;4.00;;
47483;SDS011;54076;50.322;18.650;2022-09-09T07:01:12;6.80;;;3.20;;
47483;SDS011;54076;50.322;18.650;2022-09-09T07:06:20;7.30;;;4.30;;
47483;SDS011;54076;50.322;18.650;2022-09-09T07:11:27;11.30;;;4.50;;
47483;SDS011;54076;50.322;18.650;2022-09-09T07:16:29;8.10;;;4.70;;
47483;SDS011;54076;50.322;18.650;2022-09-09T07:21:34;6.50;;;3.70;;
47483;SDS011;54076;50.322;18.650;2022-09-09T07:26:36;5.60;;;2.50;;
47483;SDS011;54076;50.322;18.650;2022-09-09T07:31:38;5.40;;;2.70;;
47483;SDS011;54076;50.322;18.650;2022-09-09T07:36:40;4.40;;;2.50;;
47483;SDS011;54076;50.322;18.650;2022-09-09T07:41:44;4.90;;;2.80;;
47483;SDS011;54076;50.322;18.650;2022-09-09T07:46:47;4.30;;;2.50;;
47483;SDS011;54076;50.322;18.650;2022-09-09T07:51:48;4.40;;;2.50;;
47483;SDS011;54076;50.322;18.650;2022-09-09T07:56:50;5.00;;;2.40;;
47483;SDS011;54076;50.322;18.650;2022-09-09T08:01:52;5.10;;;2.50;;
47483;SDS011;54076;50.322;18.650;2022-09-09T08:06:58;6.70;;;3.10;;
47483;SDS011;54076;50.322;18.650;2022-09-09T08:12:01;5.70;;;2.60;;
47483;SDS011;54076;50.322;18.650;2022-09-09T08:17:02;4.90;;;2.20;;
47483;SDS011;54076;50.322;18.650;2022-09-09T08:22:04;4.50;;;2.30;;
47483;SDS011;54076;50.322;18.650;2022-09-09T08:27:05;4.70;;;2.40;;
47483;SDS011;54076;50.322;18.650;2022-09-09T08:32:06;8.00;;;2.30;;
47483;SDS011;54076;50.322;18.650;2022-09-09T08:37:07;4.10;;;2.10;;
47483;SDS011;54076;50.322;18.650;2022-09-09T08:42:33;5.60;;;2.20;;
47483;SDS011;54076;50.322;18.650;2022-09-09T08:48:08;4.60;;;2.20;;
47483;SDS011;54076;50.322;18.650;2022-09-09T08:53:21;6.60;;;2.40;;
47483;SDS011;54076;50.322;18.650;2022-09-09T08:58:27;5.20;;;2.40;;
47483;SDS011;54076;50.322;18.650;2022-09-09T09:03:33;5.10;;;2.30;;
47483;SDS011;54076;50.322;18.650;2022-09-09T09:14:03;10.70;;;3.00;;
47483;SDS011;54076;50.322;18.650;2022-09-09T09:19:13;5.00;;;2.10;;
47483;SDS011;54076;50.322;18.650;2022-09-09T09:24:37;6.00;;;2.50;;
47483;SDS011;54076;50.322;18.650;2022-09-09T09:29:55;6.40;;;2.20;;
47483;SDS011;54076;50.322;18.650;2022-09-09T09:34:59;6.90;;;2.30;;
47483;SDS011;54076;50.322;18.650;2022-09-09T09:40:16;5.50;;;2.40;;
47483;SDS011;54076;50.322;18.650;2022-09-09T09:45:33;6.80;;;2.30;;
47483;SDS011;54076;50.322;18.650;2022-09-09T09:56:03;5.80;;;2.30;;
47483;SDS011;54076;50.322;18.650;2022-09-09T10:06:35;5.10;;;2.10;;
47483;SDS011;54076;50.322;18.650;2022-09-09T10:11:45;4.00;;;2.20;;
47483;SDS011;54076;50.322;18.650;2022-09-09T10:22:30;4.30;;;1.70;;
47483;SDS011;54076;50.322;18.650;2022-09-09T10:28:15;3.90;;;2.00;;
47483;SDS011;54076;50.322;18.650;2022-09-09T10:39:10;3.50;;;1.60;;
47483;SDS011;54076;50.322;18.650;2022-09-09T10:55:26;4.50;;;1.70;;
47483;SDS011;54076;50.322;18.650;2022-09-09T11:00:40;4.80;;;2.00;;
47483;SDS011;54076;50.322;18.650;2022-09-09T11:21:50;4.60;;;1.60;;
47483;SDS011;54076;50.322;18.650;2022-09-09T11:27:09;5.20;;;1.80;;
47483;SDS011;54076;50.322;18.650;2022-09-09T11:43:18;6.30;;;1.80;;
47483;SDS011;54076;50.322;18.650;2022-09-09T11:48:36;3.90;;;2.10;;
47483;SDS011;54076;50.322;18.650;2022-09-09T11:53:53;4.70;;;1.70;;
47483;SDS011;54076;50.322;18.650;2022-09-09T12:09:31;4.20;;;1.80;;
47483;SDS011;54076;50.322;18.650;2022-09-09T12:19:47;3.00;;;1.20;;
47483;SDS011;54076;50.322;18.650;2022-09-09T12:25:07;3.90;;;1.30;;
47483;SDS011;54076;50.322;18.650;2022-09-09T12:30:23;2.90;;;1.40;;
47483;SDS011;54076;50.322;18.650;2022-09-09T12:35:32;4.00;;;1.40;;
47483;SDS011;54076;50.322;18.650;2022-09-09T12:40:34;3.40;;;1.70;;
47483;SDS011;54076;50.322;18.650;2022-09-09T12:45:39;4.70;;;1.60;;
47483;SDS011;54076;50.322;18.650;2022-09-09T12:50:48;3.80;;;1.40;;
47483;SDS011;54076;50.322;18.650;2022-09-09T12:56:06;3.00;;;1.20;;
47483;SDS011;54076;50.322;18.650;2022-09-09T13:01:24;3.90;;;1.60;;
47483;SDS011;54076;50.322;18.650;2022-09-09T13:06:31;4.70;;;1.20;;
47483;SDS011;54076;50.322;18.650;2022-09-09T13:11:39;4.00;;;1.20;;
47483;SDS011;54076;50.322;18.650;2022-09-09T13:17:03;3.10;;;1.20;;
47483;SDS011;54076;50.322;18.650;2022-09-09T13:27:41;3.50;;;1.20;;
47483;SDS011;54076;50.322;18.650;2022-09-09T13:32:43;3.60;;;1.10;;
47483;SDS011;54076;50.322;18.650;2022-09-09T13:37:44;4.20;;;0.90;;
47483;SDS011;54076;50.322;18.650;2022-09-09T13:42:45;3.20;;;1.30;;
47483;SDS011;54076;50.322;18.650;2022-09-09T13:47:46;3.80;;;1.00;;
47483;SDS011;54076;50.322;18.650;2022-09-09T13:52:49;4.60;;;1.00;;
47483;SDS011;54076;50.322;18.650;2022-09-09T13:58:03;5.10;;;1.10;;
47483;SDS011;54076;50.322;18.650;2022-09-09T14:03:06;2.80;;;1.00;;
47483;SDS011;54076;50.322;18.650;2022-09-09T14:08:15;3.10;;;1.00;;
47483;SDS011;54076;50.322;18.650;2022-09-09T14:13:22;5.60;;;1.00;;
47483;SDS011;54076;50.322;18.650;2022-09-09T14:18:23;4.40;;;1.20;;
47483;SDS011;54076;50.322;18.650;2022-09-09T14:23:25;3.70;;;1.10;;
47483;SDS011;54076;50.322;18.650;2022-09-09T14:28:26;4.20;;;1.00;;
47483;SDS011;54076;50.322;18.650;2022-09-09T14:33:29;5.40;;;1.40;;
47483;SDS011;54076;50.322;18.650;2022-09-09T14:38:35;3.80;;;1.20;;
47483;SDS011;54076;50.322;18.650;2022-09-09T14:43:40;3.90;;;1.40;;
47483;SDS011;54076;50.322;18.650;2022-09-09T14:48:41;5.10;;;1.40;;
47483;SDS011;54076;50.322;18.650;2022-09-09T14:53:44;8.40;;;1.60;;
47483;SDS011;54076;50.322;18.650;2022-09-09T14:58:46;4.90;;;1.70;;
47483;SDS011;54076;50.322;18.650;2022-09-09T15:03:56;3.00;;;1.00;;
47483;SDS011;54076;50.322;18.650;2022-09-09T15:09:00;5.80;;;1.30;;
47483;SDS011;54076;50.322;18.650;2022-09-09T15:14:01;3.60;;;1.00;;
47483;SDS011;54076;50.322;18.650;2022-09-09T15:19:02;3.80;;;1.50;;
47483;SDS011;54076;50.322;18.650;2022-09-09T15:24:05;3.30;;;1.20;;
47483;SDS011;54076;50.322;18.650;2022-09-09T15:29:08;4.20;;;1.40;;
47483;SDS011;54076;50.322;18.650;2022-09-09T15:34:09;2.90;;;1.10;;
47483;SDS011;54076;50.322;18.650;2022-09-09T15:39:12;3.30;;;1.20;;
47483;SDS011;54076;50.322;18.650;2022-09-09T15:44:16;5.50;;;1.30;;
47483;SDS011;54076;50.322;18.650;2022-09-09T15:49:21;5.10;;;2.10;;
47483;SDS011;54076;50.322;18.650;2022-09-09T15:54:25;8.00;;;1.90;;
47483;SDS011;54076;50.322;18.650;2022-09-09T15:59:28;3.90;;;1.30;;
47483;SDS011;54076;50.322;18.650;2022-09-09T16:04:30;4.10;;;1.30;;
47483;SDS011;54076;50.322;18.650;2022-09-09T16:09:32;3.80;;;1.30;;
47483;SDS011;54076;50.322;18.650;2022-09-09T16:14:35;3.90;;;1.30;;
47483;SDS011;54076;50.322;18.650;2022-09-09T16:19:36;5.30;;;1.70;;
47483;SDS011;54076;50.322;18.650;2022-09-09T16:24:37;3.90;;;1.40;;
47483;SDS011;54076;50.322;18.650;2022-09-09T16:29:39;4.80;;;1.80;;
47483;SDS011;54076;50.322;18.650;2022-09-09T16:34:40;4.30;;;1.40;;
47483;SDS011;54076;50.322;18.650;2022-09-09T16:39:43;5.60;;;2.00;;
47483;SDS011;54076;50.322;18.650;2022-09-09T16:44:44;4.20;;;1.60;;
47483;SDS011;54076;50.322;18.650;2022-09-09T16:49:45;4.60;;;1.40;;
47483;SDS011;54076;50.322;18.650;2022-09-09T16:54:46;3.20;;;1.30;;
47483;SDS011;54076;50.322;18.650;2022-09-09T16:59:47;3.70;;;1.40;;
47483;SDS011;54076;50.322;18.650;2022-09-09T17:04:48;3.90;;;1.50;;
47483;SDS011;54076;50.322;18.650;2022-09-09T17:09:49;5.00;;;1.70;;
47483;SDS011;54076;50.322;18.650;2022-09-09T17:14:50;5.60;;;1.80;;
47483;SDS011;54076;50.322;18.650;2022-09-09T17:19:52;4.80;;;1.60;;
47483;SDS011;54076;50.322;18.650;2022-09-09T17:24:53;5.90;;;2.00;;
47483;SDS011;54076;50.322;18.650;2022-09-09T17:29:55;5.60;;;2.00;;
47483;SDS011;54076;50.322;18.650;2022-09-09T17:34:56;4.30;;;1.60;;
47483;SDS011;54076;50.322;18.650;2022-09-09T17:39:57;5.60;;;1.80;;
47483;SDS011;54076;50.322;18.650;2022-09-09T17:44:58;4.50;;;2.00;;
47483;SDS011;54076;50.322;18.650;2022-09-09T17:49:59;6.00;;;2.10;;
47483;SDS011;54076;50.322;18.650;2022-09-09T17:55:00;8.00;;;3.00;;
47483;SDS011;54076;50.322;18.650;2022-09-09T18:00:04;7.70;;;3.20;;
47483;SDS011;54076;50.322;18.650;2022-09-09T18:05:07;4.40;;;2.10;;
47483;SDS011;54076;50.322;18.650;2022-09-09T18:10:08;6.50;;;2.80;;
47483;SDS011;54076;50.322;18.650;2022-09-09T18:15:10;5.50;;;2.00;;
47483;SDS011;54076;50.322;18.650;2022-09-09T18:20:12;6.30;;;1.80;;
47483;SDS011;54076;50.322;18.650;2022-09-09T18:25:13;4.90;;;1.70;;
47483;SDS011;54076;50.322;18.650;2022-09-09T18:30:14;5.90;;;2.10;;
47483;SDS011;54076;50.322;18.650;2022-09-09T18:35:15;5.30;;;2.20;;
47483;SDS011;54076;50.322;18.650;2022-09-09T18:40:16;6.20;;;1.70;;
47483;SDS011;54076;50.322;18.650;2022-09-09T18:45:17;7.20;;;2.00;;
47483;SDS011;54076;50.322;18.650;2022-09-09T18:50:18;4.60;;;2.00;;
47483;SDS011;54076;50.322;18.650;2022-09-09T18:55:19;6.30;;;2.20;;
47483;SDS011;54076;50.322;18.650;2022-09-09T19:00:21;6.40;;;2.60;;
47483;SDS011;54076;50.322;18.650;2022-09-09T19:05:22;6.70;;;2.20;;
47483;SDS011;54076;50.322;18.650;2022-09-09T19:10:23;4.80;;;1.90;;
47483;SDS011;54076;50.322;18.650;2022-09-09T19:15:24;5.60;;;2.30;;
47483;SDS011;54076;50.322;18.650;2022-09-09T19:20:24;5.30;;;2.50;;
47483;SDS011;54076;50.322;18.650;2022-09-09T19:25:27;11.20;;;4.40;;
47483;SDS011;54076;50.322;18.650;2022-09-09T19:30:28;10.80;;;4.60;;
47483;SDS011;54076;50.322;18.650;2022-09-09T19:35:30;10.20;;;5.00;;
47483;SDS011;54076;50.322;18.650;2022-09-09T19:40:31;10.10;;;4.60;;
47483;SDS011;54076;50.322;18.650;2022-09-09T19:45:35;12.90;;;5.70;;
47483;SDS011;54076;50.322;18.650;2022-09-09T19:50:36;12.80;;;5.70;;
47483;SDS011;54076;50.322;18.650;2022-09-09T19:55:38;14.70;;;6.20;;
47483;SDS011;54076;50.322;18.650;2022-09-09T20:00:39;13.10;;;5.90;;
47483;SDS011;54076;50.322;18.650;2022-09-09T20:05:40;13.30;;;6.10;;
47483;SDS011;54076;50.322;18.650;2022-09-09T20:10:49;15.10;;;6.70;;
47483;SDS011;54076;50.322;18.650;2022-09-09T20:15:58;13.30;;;6.80;;
47483;SDS011;54076;50.322;18.650;2022-09-09T20:21:15;13.90;;;6.30;;
47483;SDS011;54076;50.322;18.650;2022-09-09T20:26:22;15.40;;;6.40;;
47483;SDS011;54076;50.322;18.650;2022-09-09T20:31:31;15.10;;;6.50;;
47483;SDS011;54076;50.322;18.650;2022-09-09T20:36:40;17.10;;;6.80;;
47483;SDS011;54076;50.322;18.650;2022-09-09T20:41:43;14.00;;;7.10;;
47483;SDS011;54076;50.322;18.650;2022-09-09T20:46:47;14.60;;;7.00;;
47483;SDS011;54076;50.322;18.650;2022-09-09T20:51:55;15.80;;;6.20;;
47483;SDS011;54076;50.322;18.650;2022-09-09T20:56:56;14.00;;;6.70;;
47483;SDS011;54076;50.322;18.650;2022-09-09T21:01:59;15.30;;;6.20;;
47483;SDS011;54076;50.322;18.650;2022-09-09T21:07:01;15.50;;;6.40;;
47483;SDS011;54076;50.322;18.650;2022-09-09T21:12:04;15.00;;;7.00;;
47483;SDS011;54076;50.322;18.650;2022-09-09T21:17:05;13.60;;;6.70;;
47483;SDS011;54076;50.322;18.650;2022-09-09T21:22:06;16.20;;;7.00;;
47483;SDS011;54076;50.322;18.650;2022-09-09T21:27:07;12.40;;;6.30;;
47483;SDS011;54076;50.322;18.650;2022-09-09T21:32:08;15.90;;;6.00;;
47483;SDS011;54076;50.322;18.650;2022-09-09T21:37:08;14.40;;;6.40;;
47483;SDS011;54076;50.322;18.650;2022-09-09T21:42:09;13.00;;;6.00;;
47483;SDS011;54076;50.322;18.650;2022-09-09T21:47:10;12.00;;;5.40;;
47483;SDS011;54076;50.322;18.650;2022-09-09T21:52:11;13.90;;;6.30;;
47483;SDS011;54076;50.322;18.650;2022-09-09T21:57:12;14.60;;;6.60;;
47483;SDS011;54076;50.322;18.650;2022-09-09T22:02:13;13.00;;;6.30;;
47483;SDS011;54076;50.322;18.650;2022-09-09T22:07:16;13.90;;;6.00;;
47483;SDS011;54076;50.322;18.650;2022-09-09T22:12:17;15.60;;;6.60;;
47483;SDS011;54076;50.322;18.650;2022-09-09T22:17:18;12.70;;;6.00;;
47483;SDS011;54076;50.322;18.650;2022-09-09T22:22:20;13.00;;;6.40;;
47483;SDS011;54076;50.322;18.650;2022-09-09T22:27:21;13.60;;;5.80;;
47483;SDS011;54076;50.322;18.650;2022-09-09T22:32:22;11.30;;;5.40;;
47483;SDS011;54076;50.322;18.650;2022-09-09T22:37:24;11.70;;;5.80;;
47483;SDS011;54076;50.322;18.650;2022-09-09T22:42:25;12.10;;;6.00;;
47483;SDS011;54076;50.322;18.650;2022-09-09T22:47:26;11.80;;;6.00;;
47483;SDS011;54076;50.322;18.650;2022-09-09T22:52:28;15.70;;;6.70;;
47483;SDS011;54076;50.322;18.650;2022-09-09T22:57:31;12.10;;;6.40;;
47483;SDS011;54076;50.322;18.650;2022-09-09T23:02:32;17.30;;;6.60;;
47483;SDS011;54076;50.322;18.650;2022-09-09T23:07:35;11.90;;;5.60;;
47483;SDS011;54076;50.322;18.650;2022-09-09T23:12:36;12.90;;;6.70;;
47483;SDS011;54076;50.322;18.650;2022-09-09T23:17:39;10.40;;;5.40;;
47483;SDS011;54076;50.322;18.650;2022-09-09T23:22:40;11.30;;;5.40;;
47483;SDS011;54076;50.322;18.650;2022-09-09T23:27:41;11.30;;;4.80;;
47483;SDS011;54076;50.322;18.650;2022-09-09T23:32:43;9.60;;;4.70;;
47483;SDS011;54076;50.322;18.650;2022-09-09T23:37:46;9.60;;;4.50;;
47483;SDS011;54076;50.322;18.650;2022-09-09T23:42:47;11.80;;;4.90;;
47483;SDS011;54076;50.322;18.650;2022-09-09T23:47:48;10.40;;;4.50;;
47483;SDS011;54076;50.322;18.650;2022-09-09T23:52:49;8.80;;;4.10;;
47483;SDS011;54076;50.322;18.650;2022-09-09T23:57:51;9.10;;;3.90;;
